createdAt,value
2018-08-23T00:01:19.715Z,36.33
2018-08-23T00:03:48.833Z,37.43
2018-08-23T00:06:17.912Z,38.63
2018-08-23T00:08:48.667Z,36.10
2018-08-23T00:11:23.263Z,36.63
2018-08-23T00:13:52.516Z,37.37
2018-08-23T00:16:31.780Z,37.17
2018-08-23T00:19:01.508Z,36.27
2018-08-23T00:21:30.579Z,38.73
2018-08-23T00:24:06.581Z,36.33
2018-08-23T00:26:36.617Z,38.87
2018-08-23T00:29:12.058Z,37.77
2018-08-23T00:31:41.680Z,36.90
2018-08-23T00:34:11.319Z,37.73
2018-08-23T00:36:40.392Z,35.57
2018-08-23T00:39:10.259Z,38.03
2018-08-23T00:41:39.390Z,38.67
2018-08-23T00:44:08.505Z,39.53
2018-08-23T00:46:37.600Z,39.80
2018-08-23T00:49:06.715Z,38.87
2018-08-23T00:51:52.127Z,40.40
2018-08-23T00:54:25.586Z,38.70
2018-08-23T00:56:54.683Z,38.57
2018-08-23T00:59:23.784Z,39.27
2018-08-23T01:02:09.910Z,35.97
2018-08-23T01:04:45.027Z,38.07
2018-08-23T01:07:18.575Z,37.80
2018-08-23T01:09:47.704Z,38.40
2018-08-23T01:12:16.861Z,38.83
2018-08-23T01:14:45.919Z,40.07
2018-08-23T01:17:18.570Z,39.80
2018-08-23T01:19:57.504Z,36.73
2018-08-23T01:22:26.626Z,39.07
2018-08-23T01:24:55.686Z,38.97
2018-08-23T01:27:30.060Z,37.70
2018-08-23T01:29:59.137Z,38.83
2018-08-23T01:32:33.093Z,40.27
2018-08-23T01:35:02.305Z,39.13
2018-08-23T01:37:39.785Z,40.30
2018-08-23T01:40:10.248Z,39.50
2018-08-23T01:42:40.486Z,39.93
2018-08-23T01:45:10.696Z,39.50
2018-08-23T01:47:55.956Z,39.97
2018-08-23T01:50:25.775Z,38.57
2018-08-23T01:52:56.208Z,40.13
2018-08-23T01:55:26.068Z,39.17
2018-08-23T01:57:55.528Z,39.10
2018-08-23T02:00:25.917Z,38.00
2018-08-23T02:02:55.165Z,39.80
2018-08-23T02:05:24.429Z,39.33
2018-08-23T02:07:53.515Z,36.30
2018-08-23T02:10:22.666Z,40.07
2018-08-23T02:12:53.107Z,39.07
2018-08-23T02:15:22.469Z,39.30
2018-08-23T02:17:54.811Z,39.03
2018-08-23T02:20:24.965Z,38.87
2018-08-23T02:22:54.754Z,39.43
2018-08-23T02:25:24.059Z,41.53
2018-08-23T02:28:04.385Z,41.83
2018-08-23T02:30:54.926Z,41.53
2018-08-23T02:33:24.543Z,41.73
2018-08-23T02:36:05.894Z,42.97
2018-08-23T02:38:36.102Z,43.77
2018-08-23T02:41:05.266Z,42.43
2018-08-23T02:43:34.330Z,41.63
2018-08-23T02:46:03.614Z,42.57
2018-08-23T02:48:32.656Z,41.47
2018-08-23T02:51:01.713Z,43.40
2018-08-23T02:53:36.359Z,45.00
2018-08-23T02:56:08.513Z,43.63
2018-08-23T02:59:09.512Z,43.27
2018-08-23T03:01:44.729Z,47.87
2018-08-23T03:04:25.100Z,44.53
2018-08-23T03:07:00.230Z,42.93
2018-08-23T03:09:45.113Z,42.10
2018-08-23T03:12:19.184Z,43.37
2018-08-23T03:14:48.656Z,42.87
2018-08-23T03:17:23.167Z,44.10
2018-08-23T03:20:12.307Z,43.80
2018-08-23T03:22:42.085Z,44.63
2018-08-23T03:25:12.397Z,45.37
2018-08-23T03:27:41.490Z,45.90
2018-08-23T03:30:11.898Z,47.57
2018-08-23T03:32:40.993Z,46.20
2018-08-23T03:35:10.213Z,46.00
2018-08-23T03:37:39.262Z,45.37
2018-08-23T03:40:09.914Z,48.40
2018-08-23T03:42:39.095Z,48.33
2018-08-23T03:45:13.386Z,46.03
2018-08-23T03:47:47.818Z,46.87
2018-08-23T03:50:16.957Z,47.87
2018-08-23T03:52:48.101Z,48.67
2018-08-23T03:55:38.322Z,47.83
2018-08-23T03:58:07.566Z,49.47
2018-08-23T04:01:07.386Z,47.53
2018-08-23T04:03:38.721Z,47.27
2018-08-23T04:06:22.835Z,46.43
2018-08-23T04:08:51.927Z,44.83
2018-08-23T04:11:21.056Z,46.53
2018-08-23T04:13:50.392Z,46.20
2018-08-23T04:16:28.423Z,44.43
2018-08-23T04:18:57.892Z,45.07
2018-08-23T04:21:27.768Z,47.53
2018-08-23T04:23:56.894Z,47.13
2018-08-23T04:26:26.927Z,44.50
2018-08-23T04:28:56.034Z,44.73
2018-08-23T04:31:25.160Z,43.43
2018-08-23T04:33:54.248Z,44.33
2018-08-23T04:36:29.893Z,48.07
2018-08-23T04:39:03.061Z,45.33
2018-08-23T04:41:32.839Z,43.90
2018-08-23T04:44:09.643Z,43.17
2018-08-23T04:46:38.737Z,43.90
2018-08-23T04:49:08.233Z,45.03
2018-08-23T04:51:38.176Z,43.83
2018-08-23T04:54:07.343Z,42.80
2018-08-23T04:56:37.811Z,42.80
2018-08-23T04:59:06.948Z,44.97
2018-08-23T05:01:41.145Z,47.17
2018-08-23T05:04:15.206Z,45.10
2018-08-23T05:06:45.261Z,45.27
2018-08-23T05:09:14.494Z,45.07
2018-08-23T05:11:43.741Z,46.80
2018-08-23T05:14:13.473Z,47.73
2018-08-23T05:16:42.823Z,73.97
2018-08-23T05:19:12.379Z,48.40
2018-08-23T05:21:41.617Z,51.00
2018-08-23T05:24:12.164Z,47.93
2018-08-23T05:26:41.946Z,53.77
2018-08-23T05:29:11.660Z,50.47
2018-08-23T05:31:40.974Z,49.77
2018-08-23T05:34:10.256Z,48.13
2018-08-23T05:36:39.559Z,50.27
2018-08-23T05:39:09.357Z,48.10
2018-08-23T05:41:38.566Z,51.13
2018-08-23T05:44:14.044Z,50.17
2018-08-23T05:46:59.569Z,48.67
2018-08-23T05:49:28.971Z,50.50
2018-08-23T05:51:59.551Z,49.50
2018-08-23T05:54:28.776Z,50.03
2018-08-23T05:56:57.875Z,50.17
2018-08-23T05:59:27.035Z,49.30
2018-08-23T06:01:56.130Z,50.97
2018-08-23T06:04:36.297Z,48.17
2018-08-23T06:07:05.387Z,47.77
2018-08-23T06:09:34.462Z,47.70
2018-08-23T06:12:03.647Z,49.10
2018-08-23T06:14:32.763Z,50.30
2018-08-23T06:17:01.960Z,49.60
2018-08-23T06:19:33.081Z,48.40
2018-08-23T06:22:05.839Z,49.97
2018-08-23T06:24:36.194Z,49.57
2018-08-23T06:27:05.518Z,49.40
2018-08-23T06:29:35.537Z,48.90
2018-08-23T06:32:08.100Z,50.70
2018-08-23T06:34:40.843Z,50.73
2018-08-23T06:37:09.965Z,50.10
2018-08-23T06:39:41.392Z,51.43
2018-08-23T06:42:10.660Z,50.97
2018-08-23T06:44:45.031Z,51.77
2018-08-23T06:47:21.828Z,53.37
2018-08-23T06:49:51.951Z,51.07
2018-08-23T06:53:00.812Z,55.10
2018-08-23T06:55:37.373Z,53.47
2018-08-23T06:58:06.502Z,53.23
2018-08-23T07:00:35.614Z,52.83
2018-08-23T07:03:05.186Z,52.53
2018-08-23T07:05:34.371Z,50.57
2018-08-23T07:08:03.380Z,50.80
2018-08-23T07:10:32.474Z,50.07
2018-08-23T07:13:01.603Z,49.57
2018-08-23T07:15:30.706Z,46.40
2018-08-23T07:18:01.371Z,45.53
2018-08-23T07:20:30.519Z,49.10
2018-08-23T07:22:59.609Z,47.40
2018-08-23T07:25:32.856Z,46.43
2018-08-23T07:28:01.923Z,42.97
2018-08-23T07:30:31.031Z,48.20
2018-08-23T07:33:00.166Z,47.17
2018-08-23T07:35:29.251Z,48.13
2018-08-23T07:37:58.370Z,49.73
2018-08-23T07:40:27.501Z,49.23
2018-08-23T07:42:56.659Z,51.37
2018-08-23T07:45:25.783Z,49.77
2018-08-23T07:47:56.039Z,48.73
2018-08-23T07:50:25.130Z,51.23
2018-08-23T07:52:55.050Z,47.80
2018-08-23T07:55:24.044Z,52.93
2018-08-23T07:57:53.106Z,49.27
2018-08-23T08:00:29.080Z,49.27
2018-08-23T08:02:58.134Z,49.27
2018-08-23T08:05:31.923Z,51.27
2018-08-23T08:08:01.122Z,50.90
2018-08-23T08:10:33.371Z,53.97
2018-08-23T08:13:02.449Z,52.87
2018-08-23T08:15:31.611Z,50.90
2018-08-23T08:18:06.670Z,48.07
2018-08-23T08:20:35.769Z,47.23
2018-08-23T08:23:04.966Z,47.80
2018-08-23T08:25:34.124Z,46.57
2018-08-23T08:28:03.417Z,46.47
2018-08-23T08:30:41.571Z,45.27
2018-08-23T08:33:13.643Z,37.17
2018-08-23T08:35:43.809Z,42.60
2018-08-23T08:38:13.191Z,43.60
2018-08-23T08:40:42.298Z,40.63
2018-08-23T08:43:11.429Z,40.53
2018-08-23T08:45:40.572Z,38.33
2018-08-23T08:48:24.918Z,40.57
2018-08-23T08:51:10.649Z,36.87
2018-08-23T08:53:39.726Z,37.93
2018-08-23T08:56:09.075Z,40.87
2018-08-23T08:58:38.420Z,41.47
2018-08-23T09:01:07.529Z,39.60
2018-08-23T09:03:37.912Z,38.37
2018-08-23T09:06:10.231Z,36.60
2018-08-23T09:08:39.690Z,33.40
2018-08-23T09:11:08.818Z,34.77
2018-08-23T09:13:43.187Z,35.90
2018-08-23T09:16:12.518Z,31.23
2018-08-23T09:18:46.607Z,28.70
2018-08-23T09:21:15.786Z,29.20
2018-08-23T09:23:45.002Z,27.57
2018-08-23T09:26:14.173Z,26.87
2018-08-23T09:28:43.311Z,28.17
2018-08-23T09:31:12.512Z,27.00
2018-08-23T09:33:42.740Z,23.57
2018-08-23T09:36:12.645Z,17.90
2018-08-23T09:38:42.313Z,16.77
2018-08-23T09:41:12.215Z,15.87
2018-08-23T09:43:42.599Z,15.83
2018-08-23T09:46:12.437Z,14.98
2018-08-23T09:48:42.332Z,17.60
2018-08-23T09:51:16.979Z,14.17
2018-08-23T09:53:46.615Z,13.77
2018-08-23T09:56:21.549Z,12.20
2018-08-23T09:58:52.849Z,10.82
2018-08-23T10:02:30.579Z,9.90
2018-08-23T10:05:06.728Z,11.63
2018-08-23T10:07:41.601Z,11.97
2018-08-23T10:10:16.403Z,11.03
2018-08-23T10:12:51.167Z,11.97
2018-08-23T10:15:29.038Z,11.63
2018-08-23T10:18:05.305Z,10.57
2018-08-23T10:20:45.380Z,9.17
2018-08-23T10:23:15.676Z,11.67
2018-08-23T10:25:48.553Z,11.43
2018-08-23T10:28:19.765Z,10.90
2018-08-23T10:30:50.287Z,10.00
2018-08-23T10:33:20.261Z,9.95
2018-08-23T10:35:54.818Z,10.08
2018-08-23T10:38:26.610Z,9.57
2018-08-23T10:41:01.018Z,8.53
2018-08-23T10:43:35.846Z,7.50
2018-08-23T10:46:05.960Z,7.05
2018-08-23T10:48:35.230Z,7.00
2018-08-23T10:51:04.665Z,6.90
2018-08-23T10:53:33.806Z,5.83
2018-08-23T10:56:03.127Z,5.87
2018-08-23T10:58:32.823Z,6.53
2018-08-23T11:01:02.222Z,6.40
2018-08-23T11:03:31.419Z,6.15
2018-08-23T11:06:00.882Z,8.25
2018-08-23T11:08:32.038Z,6.87
2018-08-23T11:11:06.676Z,7.05
2018-08-23T11:13:41.169Z,9.03
2018-08-23T11:16:15.455Z,11.20
2018-08-23T11:19:53.201Z,9.67
2018-08-23T11:22:26.425Z,9.50
2018-08-23T11:24:55.530Z,8.73
2018-08-23T11:27:24.655Z,11.20
2018-08-23T11:29:53.813Z,9.28
2018-08-23T11:32:23.323Z,9.13
2018-08-23T11:34:53.111Z,8.55
2018-08-23T11:37:22.242Z,9.08
2018-08-23T11:39:51.425Z,7.72
2018-08-23T11:42:20.531Z,7.08
2018-08-23T11:44:49.627Z,6.97
2018-08-23T11:47:18.753Z,7.28
2018-08-23T11:49:47.834Z,7.28
2018-08-23T11:52:16.942Z,8.08
2018-08-23T11:54:46.098Z,6.08
2018-08-23T11:57:15.261Z,7.30
2018-08-23T11:59:44.448Z,6.75
2018-08-23T12:02:13.626Z,6.13
2018-08-23T12:04:42.732Z,7.67
2018-08-23T12:07:11.825Z,5.92
2018-08-23T12:09:40.907Z,6.25
2018-08-23T12:12:10.080Z,8.55
2018-08-23T12:14:39.275Z,7.25
2018-08-23T12:17:08.396Z,7.65
2018-08-23T12:19:37.456Z,7.83
2018-08-23T12:22:06.584Z,5.72
2018-08-23T12:24:35.702Z,5.00
2018-08-23T12:27:04.832Z,6.33
2018-08-23T12:29:33.944Z,7.12
2018-08-23T12:32:03.175Z,5.97
2018-08-23T12:34:34.450Z,7.37
2018-08-23T12:37:08.949Z,6.17
2018-08-23T12:39:43.260Z,6.47
2018-08-23T12:42:17.683Z,7.50
2018-08-23T12:44:52.904Z,5.78
2018-08-23T12:47:22.142Z,5.47
2018-08-23T12:49:51.341Z,9.10
2018-08-23T12:52:22.258Z,6.60
2018-08-23T12:54:51.730Z,6.10
2018-08-23T12:57:20.849Z,6.75
2018-08-23T12:59:50.021Z,6.40
2018-08-23T13:02:25.927Z,5.83
2018-08-23T13:04:55.031Z,6.75
2018-08-23T13:07:24.111Z,5.90
2018-08-23T13:09:53.231Z,7.17
2018-08-23T13:12:23.119Z,6.58
2018-08-23T13:14:52.232Z,6.62
2018-08-23T13:17:21.321Z,5.60
2018-08-23T13:19:50.418Z,6.75
2018-08-23T13:22:24.784Z,6.62
2018-08-23T13:24:59.129Z,7.58
2018-08-23T13:27:30.662Z,9.10
2018-08-23T13:30:00.381Z,8.28
2018-08-23T13:32:29.613Z,9.78
2018-08-23T13:34:59.304Z,7.87
2018-08-23T13:37:29.270Z,7.60
2018-08-23T13:39:58.397Z,8.05
2018-08-23T13:42:27.519Z,8.60
2018-08-23T13:44:56.667Z,8.30
2018-08-23T13:47:25.917Z,8.83
2018-08-23T13:49:54.998Z,8.68
2018-08-23T13:52:24.064Z,9.18
2018-08-23T13:54:53.155Z,10.68
2018-08-23T13:57:22.198Z,9.73
2018-08-23T13:59:51.269Z,9.70
2018-08-23T14:02:20.428Z,8.50
2018-08-23T14:04:49.431Z,9.58
2018-08-23T14:07:18.635Z,11.53
2018-08-23T14:09:47.734Z,9.45
2018-08-23T14:12:16.925Z,10.80
2018-08-23T14:14:46.063Z,10.55
2018-08-23T14:17:15.206Z,10.35
2018-08-23T14:19:44.312Z,10.53
2018-08-23T14:22:13.436Z,10.05
2018-08-23T14:24:42.568Z,10.72
2018-08-23T14:27:11.716Z,10.60
2018-08-23T14:29:40.859Z,11.93
2018-08-23T14:32:09.976Z,13.68
2018-08-23T14:34:39.073Z,12.40
2018-08-23T14:37:08.156Z,11.05
2018-08-23T14:39:37.246Z,11.08
2018-08-23T14:42:06.395Z,11.68
2018-08-23T14:44:35.482Z,9.75
2018-08-23T14:47:11.839Z,12.82
2018-08-23T14:49:42.452Z,13.48
2018-08-23T14:52:12.496Z,11.93
2018-08-23T14:54:45.958Z,12.37
2018-08-23T14:57:20.935Z,10.98
2018-08-23T14:59:50.088Z,12.25
2018-08-23T15:02:19.249Z,11.60
2018-08-23T15:04:49.254Z,12.25
2018-08-23T15:07:18.568Z,12.15
2018-08-23T15:09:47.671Z,11.60
2018-08-23T15:12:16.777Z,11.45
2018-08-23T15:14:45.876Z,11.73
2018-08-23T15:17:15.089Z,11.00
2018-08-23T15:19:44.216Z,12.75
2018-08-23T15:22:13.338Z,11.60
2018-08-23T15:24:42.479Z,13.78
2018-08-23T15:27:11.761Z,10.65
2018-08-23T15:29:40.753Z,10.70
2018-08-23T15:32:09.840Z,12.95
2018-08-23T15:34:38.948Z,10.70
2018-08-23T15:37:08.108Z,12.43
2018-08-23T15:39:39.982Z,11.53
2018-08-23T15:42:09.195Z,10.90
2018-08-23T15:44:38.305Z,11.97
2018-08-23T15:47:08.852Z,11.68
2018-08-23T15:49:37.966Z,10.78
2018-08-23T15:52:07.408Z,11.65
2018-08-23T15:54:36.471Z,11.00
2018-08-23T15:57:05.707Z,9.88
2018-08-23T15:59:34.887Z,10.18
2018-08-23T16:02:04.127Z,10.45
2018-08-23T16:04:33.266Z,9.33
2018-08-23T16:07:02.406Z,9.33
2018-08-23T16:09:31.498Z,10.25
2018-08-23T16:12:00.592Z,9.90
2018-08-23T16:14:29.780Z,8.33
2018-08-23T16:17:04.100Z,8.80
2018-08-23T16:19:38.573Z,9.10
2018-08-23T16:22:07.686Z,8.55
2018-08-23T16:24:36.765Z,7.65
2018-08-23T16:27:06.968Z,7.65
2018-08-23T16:29:36.077Z,8.38
2018-08-23T16:32:05.571Z,7.28
2018-08-23T16:34:34.704Z,7.50
2018-08-23T16:37:03.817Z,7.10
2018-08-23T16:39:33.020Z,6.07
2018-08-23T16:42:02.180Z,6.83
2018-08-23T16:44:31.246Z,6.08
2018-08-23T16:47:00.391Z,5.70
2018-08-23T16:49:29.512Z,6.10
2018-08-23T16:51:58.599Z,5.42
2018-08-23T16:54:27.676Z,5.25
2018-08-23T16:56:56.840Z,4.93
2018-08-23T16:59:25.915Z,5.28
2018-08-23T17:01:55.022Z,5.10
2018-08-23T17:04:28.288Z,4.80
2018-08-23T17:06:57.393Z,4.50
2018-08-23T17:09:26.758Z,5.27
2018-08-23T17:11:55.839Z,5.30
2018-08-23T17:14:24.937Z,5.03
2018-08-23T17:16:59.294Z,4.90
2018-08-23T17:19:28.493Z,4.58
2018-08-23T17:21:57.949Z,5.40
2018-08-23T17:24:27.291Z,5.33
2018-08-23T17:26:56.427Z,5.15
2018-08-23T17:29:25.570Z,5.20
2018-08-23T17:31:55.240Z,5.23
2018-08-23T17:34:24.330Z,8.23
2018-08-23T17:36:53.932Z,6.40
2018-08-23T17:39:23.265Z,6.70
2018-08-23T17:41:52.526Z,5.80
2018-08-23T17:44:22.346Z,5.83
2018-08-23T17:46:51.700Z,6.80
2018-08-23T17:49:20.820Z,6.53
2018-08-23T17:51:49.993Z,6.33
2018-08-23T17:54:31.148Z,5.00
2018-08-23T17:57:00.299Z,5.10
2018-08-23T17:59:29.458Z,4.67
2018-08-23T18:01:58.618Z,4.20
2018-08-23T18:04:27.762Z,4.80
2018-08-23T18:06:56.880Z,3.70
2018-08-23T18:09:26.108Z,4.30
2018-08-23T18:11:55.197Z,4.30
2018-08-23T18:14:24.330Z,3.80
2018-08-23T18:17:00.570Z,4.63
2018-08-23T18:19:29.759Z,4.23
2018-08-23T18:21:58.857Z,5.77
2018-08-23T18:24:27.999Z,4.30
2018-08-23T18:26:57.328Z,3.73
2018-08-23T18:29:26.484Z,3.70
2018-08-23T18:31:55.664Z,4.37
2018-08-23T18:34:24.796Z,3.90
2018-08-23T18:36:53.882Z,4.17
2018-08-23T18:39:22.989Z,3.77
2018-08-23T18:41:52.128Z,3.10
2018-08-23T18:44:21.464Z,3.40
2018-08-23T18:46:50.551Z,3.50
2018-08-23T18:49:19.723Z,3.50
2018-08-23T18:51:48.864Z,2.80
2018-08-23T18:54:18.010Z,3.53
2018-08-23T18:56:47.095Z,3.20
2018-08-23T18:59:22.724Z,3.60
2018-08-23T19:01:51.860Z,2.90
2018-08-23T19:04:20.997Z,3.00
2018-08-23T19:06:50.149Z,2.90
2018-08-23T19:09:19.187Z,3.10
2018-08-23T19:11:48.325Z,3.10
2018-08-23T19:14:17.426Z,3.40
2018-08-23T19:16:52.439Z,3.27
2018-08-23T19:19:21.612Z,2.80
2018-08-23T19:21:50.790Z,2.83
2018-08-23T19:24:19.887Z,3.60
2018-08-23T19:26:55.521Z,2.73
2018-08-23T19:29:24.647Z,2.40
2018-08-23T19:31:53.788Z,2.50
2018-08-23T19:34:22.882Z,2.77
2018-08-23T19:36:52.043Z,2.40
2018-08-23T19:39:27.514Z,2.47
2018-08-23T19:41:56.636Z,2.77
2018-08-23T19:44:25.710Z,2.43
2018-08-23T19:47:00.192Z,2.57
2018-08-23T19:49:34.391Z,3.20
2018-08-23T19:52:03.665Z,3.00
2018-08-23T19:54:32.732Z,2.70
2018-08-23T19:57:01.849Z,2.60
2018-08-23T19:59:30.996Z,2.30
2018-08-23T20:02:00.194Z,4.93
2018-08-23T20:04:29.304Z,2.67
2018-08-23T20:06:58.505Z,2.30
2018-08-23T20:09:27.539Z,2.77
2018-08-23T20:11:56.625Z,2.77
2018-08-23T20:14:25.773Z,2.30
2018-08-23T20:16:55.025Z,2.70
2018-08-23T20:19:24.527Z,2.97
2018-08-23T20:21:53.744Z,2.50
2018-08-23T20:24:22.927Z,2.70
2018-08-23T20:26:52.076Z,2.60
2018-08-23T20:29:21.566Z,2.77
2018-08-23T20:31:51.334Z,2.60
2018-08-23T20:34:20.449Z,2.40
2018-08-23T20:36:49.560Z,2.67
2018-08-23T20:39:19.490Z,2.80
2018-08-23T20:41:48.806Z,2.37
2018-08-23T20:44:17.928Z,2.70
2018-08-23T20:46:47.053Z,2.73
2018-08-23T20:49:16.203Z,2.50
2018-08-23T20:51:45.348Z,2.40
2018-08-23T20:54:14.441Z,2.77
2018-08-23T20:56:43.634Z,2.77
2018-08-23T20:59:12.729Z,2.47
2018-08-23T21:01:41.829Z,2.50
2018-08-23T21:04:11.022Z,2.27
2018-08-23T21:06:40.127Z,1.80
2018-08-23T21:09:11.179Z,2.13
2018-08-23T21:11:40.707Z,2.33
2018-08-23T21:14:10.593Z,2.53
2018-08-23T21:16:40.480Z,2.30
2018-08-23T21:19:09.705Z,2.30
2018-08-23T21:21:38.898Z,3.00
2018-08-23T21:24:08.003Z,2.50
2018-08-23T21:26:37.126Z,2.17
2018-08-23T21:29:06.252Z,1.90
2018-08-23T21:31:35.463Z,2.10
2018-08-23T21:34:04.603Z,2.00
2018-08-23T21:36:33.707Z,2.10
2018-08-23T21:39:02.855Z,2.03
2018-08-23T21:41:31.971Z,2.23
2018-08-23T21:44:01.171Z,2.17
2018-08-23T21:46:30.332Z,2.30
2018-08-23T21:48:59.413Z,2.50
2018-08-23T21:51:28.500Z,2.70
2018-08-23T21:53:58.620Z,2.80
2018-08-23T21:56:27.688Z,2.13
2018-08-23T21:58:56.800Z,2.80
2018-08-23T22:01:25.895Z,2.67
2018-08-23T22:03:55.011Z,2.47
2018-08-23T22:06:24.103Z,1.77
2018-08-23T22:08:53.265Z,1.93
2018-08-23T22:11:22.405Z,1.90
2018-08-23T22:13:51.668Z,1.73
2018-08-23T22:16:20.751Z,1.67
2018-08-23T22:18:49.871Z,1.40
2018-08-23T22:21:18.955Z,1.50
2018-08-23T22:23:48.115Z,1.70
2018-08-23T22:26:18.251Z,1.50
2018-08-23T22:28:47.294Z,1.60
2018-08-23T22:31:16.395Z,1.70
2018-08-23T22:33:45.478Z,1.30
2018-08-23T22:36:14.636Z,1.37
2018-08-23T22:38:43.867Z,1.80
2018-08-23T22:41:12.977Z,1.50
2018-08-23T22:43:42.644Z,1.60
2018-08-23T22:46:11.758Z,1.43
2018-08-23T22:48:40.848Z,1.40
2018-08-23T22:51:09.956Z,1.30
2018-08-23T22:53:39.137Z,1.50
2018-08-23T22:56:08.575Z,1.30
2018-08-23T22:58:37.681Z,1.37
2018-08-23T23:01:06.779Z,1.50
2018-08-23T23:03:41.124Z,1.13
2018-08-23T23:06:10.250Z,1.20
2018-08-23T23:08:39.407Z,1.40
2018-08-23T23:11:08.526Z,1.33
2018-08-23T23:13:37.591Z,1.53
2018-08-23T23:16:06.712Z,1.50
2018-08-23T23:18:35.843Z,1.80
2018-08-23T23:21:04.900Z,1.57
2018-08-23T23:23:34.018Z,1.60
2018-08-23T23:26:03.124Z,1.30
2018-08-23T23:28:32.207Z,1.70
2018-08-23T23:31:01.248Z,1.63
2018-08-23T23:33:30.327Z,1.67
2018-08-23T23:35:59.458Z,1.90
2018-08-23T23:38:28.565Z,1.93
2018-08-23T23:40:57.734Z,1.97
2018-08-23T23:43:26.870Z,1.80
2018-08-23T23:46:02.299Z,1.70
2018-08-23T23:48:31.457Z,1.33
2018-08-23T23:51:00.618Z,1.70
2018-08-23T23:53:29.700Z,2.77
2018-08-23T23:55:58.761Z,2.50
2018-08-23T23:58:27.855Z,1.90
